This is the latest recevied weather packets stored in our database for station/object N4OGP-WX. If no packets are shown the sender has not sent any weather packets the latest 10 day(s).
| Time | Temp. | Humidity | Pressure | Rain* | Wind** | Luminosity | Snow |
|---|---|---|---|---|---|---|---|
| 1777400988 | 23.89° C | 42% | 1020.4 hPa | 0 mm | - | - | - |
| 1777400898 | 26.67° C | 78% | 1016.8 hPa | 0 mm | - | - | - |
| 1777400838 | 23.89° C | 42% | 1020.4 hPa | 0 mm | - | - | - |
| 1777400778 | 26.67° C | 77% | 1016.9 hPa | 0 mm | - | - | - |
| 1777400718 | 26.67° C | 77% | 1017 hPa | 0 mm | - | - | - |
| 1777400658 | 27.22° C | 77% | 1017 hPa | 0 mm | - | - | - |
| 1777400598 | 27.22° C | 78% | 1016.9 hPa | 0 mm | - | - | - |
| 1777400508 | 23.89° C | 42% | 1020.4 hPa | 0 mm | - | - | - |
| 1777400448 | 27.22° C | 77% | 1017 hPa | 0 mm | - | - | - |
| 1777400388 | 27.22° C | 78% | 1017 hPa | 0 mm | - | - | - |
| 1777400298 | 27.22° C | 77% | 1017 hPa | 0 mm | - | - | - |
| 1777400238 | 27.22° C | 77% | 1017 hPa | 0 mm | - | - | - |
| 1777400178 | 27.22° C | 77% | 1017.1 hPa | 0 mm | - | - | - |
| 1777400118 | 23.89° C | 42% | 1020.4 hPa | 0 mm | - | - | - |
| 1777400058 | 27.22° C | 75% | 1017.1 hPa | 0 mm | - | - | - |
| 1777399998 | 27.22° C | 76% | 1017.1 hPa | 0 mm | - | - | - |
| 1777399938 | 23.89° C | 42% | 1020.4 hPa | 0 mm | - | - | - |
| 1777399848 | 27.22° C | 76% | 1017.1 hPa | 0 mm | - | - | - |
| 1777399758 | 27.22° C | 77% | 1017.1 hPa | 0 mm | - | - | - |
| 1777399698 | 27.22° C | 76% | 1017.1 hPa | 0 mm | - | - | - |
| 1777399608 | 23.89° C | 42% | 1020.4 hPa | 0 mm | - | - | - |
| 1777399548 | 27.22° C | 77% | 1017.1 hPa | 0 mm | - | - | - |
| 1777399488 | 23.89° C | 42% | 1020.4 hPa | 0 mm | - | - | - |
| 1777399428 | 23.89° C | 42% | 1020.4 hPa | 0 mm | - | - | - |
| 1777399368 | 23.89° C | 42% | 1020.4 hPa | 0 mm | - | - | - |
* Rain latest hour (hover to see other rain measurements)
** Current wind speed in m/s (hover to see current wind gust speed)